createdAt,value
2022-12-05T00:00:28.317Z,0.40
2022-12-05T00:02:54.912Z,0.30
2022-12-05T00:05:21.599Z,0.20
2022-12-05T00:07:48.324Z,0.20
2022-12-05T00:10:15.052Z,0.20
2022-12-05T00:12:41.655Z,0.10
2022-12-05T00:15:12.350Z,0.20
2022-12-05T00:17:40.653Z,0.10
2022-12-05T00:20:07.943Z,-0.10
2022-12-05T00:22:38.438Z,0.00
2022-12-05T00:25:08.104Z,0.00
2022-12-05T00:27:34.720Z,0.00
2022-12-05T00:30:01.349Z,0.00
2022-12-05T00:32:28.816Z,0.10
2022-12-05T00:34:55.652Z,0.10
2022-12-05T00:37:22.527Z,0.20
2022-12-05T00:39:49.161Z,0.20
2022-12-05T00:42:15.775Z,0.20
2022-12-05T00:44:42.388Z,0.30
2022-12-05T00:47:09.032Z,0.20
2022-12-05T00:49:35.674Z,0.30
2022-12-05T00:52:02.288Z,0.20
2022-12-05T00:54:28.926Z,0.10
2022-12-05T00:56:56.303Z,0.10
2022-12-05T00:59:22.970Z,0.10
2022-12-05T01:01:50.580Z,0.10
2022-12-05T01:04:21.030Z,0.10
2022-12-05T01:06:48.001Z,0.00
2022-12-05T01:09:15.479Z,-0.20
2022-12-05T01:11:42.584Z,-0.20
2022-12-05T01:14:10.260Z,-0.20
2022-12-05T01:16:37.830Z,-0.10
2022-12-05T01:19:06.101Z,-0.10
2022-12-05T01:21:32.718Z,-0.20
2022-12-05T01:23:59.343Z,-0.20
2022-12-05T01:26:25.957Z,-0.20
2022-12-05T01:28:52.762Z,-0.10
2022-12-05T01:31:24.478Z,-0.10
2022-12-05T01:33:51.556Z,-0.10
2022-12-05T01:36:18.606Z,-0.10
2022-12-05T01:38:45.615Z,-0.10
2022-12-05T01:41:14.092Z,0.00
2022-12-05T01:43:53.001Z,0.00
2022-12-05T01:46:19.749Z,0.10
2022-12-05T01:48:46.648Z,0.10
2022-12-05T01:51:13.442Z,0.20
2022-12-05T01:53:40.067Z,0.20
2022-12-05T01:56:07.065Z,0.20
2022-12-05T01:58:35.832Z,0.20
2022-12-05T02:01:02.579Z,0.20
2022-12-05T02:03:29.269Z,0.30
2022-12-05T02:05:58.121Z,0.30
2022-12-05T02:08:27.452Z,0.40
2022-12-05T02:10:55.298Z,0.30
2022-12-05T02:13:40.451Z,0.30
2022-12-05T02:16:11.514Z,0.30
2022-12-05T02:18:54.624Z,0.30
2022-12-05T02:21:38.267Z,0.30
2022-12-05T02:24:14.435Z,0.30
2022-12-05T02:26:47.094Z,0.40
2022-12-05T02:29:13.695Z,0.40
2022-12-05T02:31:47.445Z,0.40
2022-12-05T02:34:27.236Z,0.40
2022-12-05T02:36:57.842Z,0.40
2022-12-05T02:39:28.081Z,0.50
2022-12-05T02:41:57.847Z,0.50
2022-12-05T02:44:33.438Z,0.50
2022-12-05T02:47:00.544Z,0.50
2022-12-05T02:49:30.469Z,0.50
2022-12-05T02:51:58.375Z,0.50
2022-12-05T02:54:27.391Z,0.50
2022-12-05T02:56:54.639Z,0.50
2022-12-05T02:59:23.478Z,0.60
2022-12-05T03:01:50.790Z,0.60
2022-12-05T03:04:19.960Z,0.60
2022-12-05T03:07:07.502Z,0.60
2022-12-05T03:09:36.458Z,0.60
2022-12-05T03:12:08.605Z,0.70
2022-12-05T03:14:38.083Z,0.60
2022-12-05T03:17:07.477Z,0.60
2022-12-05T03:19:43.108Z,0.60
2022-12-05T03:22:17.426Z,0.70
2022-12-05T03:24:44.080Z,0.70
2022-12-05T03:27:29.598Z,0.70
2022-12-05T03:29:56.516Z,0.70
2022-12-05T03:32:42.051Z,0.70
2022-12-05T03:35:17.822Z,0.70
2022-12-05T03:37:49.758Z,0.70
2022-12-05T03:40:38.272Z,0.70
2022-12-05T03:43:11.699Z,0.70
2022-12-05T03:45:44.107Z,0.80
2022-12-05T03:48:23.768Z,0.80
2022-12-05T03:50:51.583Z,0.80
2022-12-05T03:53:22.351Z,0.90
2022-12-05T03:55:52.822Z,0.90
2022-12-05T03:58:26.283Z,0.90
2022-12-05T04:00:54.086Z,1.00
2022-12-05T04:03:24.998Z,1.00
2022-12-05T04:05:56.313Z,1.00
2022-12-05T04:08:28.453Z,1.00
2022-12-05T04:10:58.066Z,1.00
2022-12-05T04:13:45.782Z,1.00
2022-12-05T04:16:50.019Z,1.00
2022-12-05T04:19:19.442Z,1.00
2022-12-05T04:21:48.224Z,1.00
2022-12-05T04:24:36.452Z,1.00
2022-12-05T04:27:12.395Z,1.00
2022-12-05T04:29:44.601Z,1.00
2022-12-05T04:32:13.532Z,1.00
2022-12-05T04:34:40.772Z,1.00
2022-12-05T04:37:12.897Z,1.00
2022-12-05T04:39:43.104Z,0.90
2022-12-05T04:42:11.810Z,0.90
2022-12-05T04:44:42.237Z,0.90
2022-12-05T04:47:10.682Z,0.90
2022-12-05T04:49:38.754Z,0.90
2022-12-05T04:52:08.505Z,0.90
2022-12-05T04:54:37.940Z,0.90
2022-12-05T04:57:12.408Z,0.90
2022-12-05T04:59:39.043Z,1.00
2022-12-05T05:02:09.965Z,1.10
2022-12-05T05:04:39.780Z,1.10
2022-12-05T05:07:07.783Z,1.20
2022-12-05T05:09:34.916Z,1.30
2022-12-05T05:12:01.661Z,1.30
2022-12-05T05:14:28.286Z,1.40
2022-12-05T05:16:54.915Z,1.40
2022-12-05T05:19:21.600Z,1.40
2022-12-05T05:21:48.716Z,1.40
2022-12-05T05:24:15.646Z,1.50
2022-12-05T05:26:43.936Z,1.50
2022-12-05T05:29:10.787Z,1.50
2022-12-05T05:31:38.002Z,1.60
2022-12-05T05:34:09.371Z,1.60
2022-12-05T05:36:37.041Z,1.60
2022-12-05T05:39:04.207Z,1.60
2022-12-05T05:41:32.383Z,1.70
2022-12-05T05:43:59.617Z,1.70
2022-12-05T05:46:27.497Z,1.70
2022-12-05T05:48:54.372Z,1.70
2022-12-05T05:51:21.992Z,1.80
2022-12-05T05:53:51.563Z,1.80
2022-12-05T05:56:21.819Z,1.80
2022-12-05T05:58:54.752Z,1.80
2022-12-05T06:01:21.558Z,1.90
2022-12-05T06:03:50.631Z,1.90
2022-12-05T06:06:18.670Z,1.90
2022-12-05T06:08:45.775Z,1.90
2022-12-05T06:11:16.107Z,2.00
2022-12-05T06:13:45.574Z,2.00
2022-12-05T06:16:13.590Z,2.00
2022-12-05T06:18:40.256Z,2.00
2022-12-05T06:21:11.767Z,2.00
2022-12-05T06:23:42.548Z,2.10
2022-12-05T06:26:13.426Z,2.10
2022-12-05T06:28:40.635Z,2.10
2022-12-05T06:31:11.893Z,2.10
2022-12-05T06:33:39.064Z,2.20
2022-12-05T06:36:07.444Z,2.20
2022-12-05T06:38:36.886Z,2.20
2022-12-05T06:41:06.502Z,2.20
2022-12-05T06:43:33.265Z,2.20
2022-12-05T06:46:01.625Z,2.20
2022-12-05T06:48:28.375Z,2.20
2022-12-05T06:50:55.020Z,2.20
2022-12-05T06:53:21.714Z,2.30
2022-12-05T06:56:01.496Z,2.30
2022-12-05T06:58:28.401Z,2.30
2022-12-05T07:01:13.765Z,2.40
2022-12-05T07:03:40.628Z,2.40
2022-12-05T07:06:07.663Z,2.40
2022-12-05T07:08:34.697Z,2.40
2022-12-05T07:11:02.187Z,2.40
2022-12-05T07:13:28.833Z,2.40
2022-12-05T07:15:55.544Z,2.40
2022-12-05T07:18:22.289Z,2.40
2022-12-05T07:21:12.565Z,2.40
2022-12-05T07:23:39.917Z,2.40
2022-12-05T07:26:07.560Z,2.40
2022-12-05T07:28:34.465Z,2.40
2022-12-05T07:31:02.063Z,2.40
2022-12-05T07:33:28.908Z,2.50
2022-12-05T07:36:00.336Z,2.40
2022-12-05T07:38:27.220Z,2.50
2022-12-05T07:40:53.836Z,2.50
2022-12-05T07:43:20.726Z,2.50
2022-12-05T07:45:47.446Z,2.50
2022-12-05T07:48:18.261Z,2.50
2022-12-05T07:50:45.479Z,2.50
2022-12-05T07:53:12.101Z,2.50
2022-12-05T07:55:39.179Z,2.50
2022-12-05T07:58:05.926Z,2.50
2022-12-05T08:00:32.738Z,2.50
2022-12-05T08:02:59.531Z,2.50
2022-12-05T08:05:26.207Z,2.50
2022-12-05T08:07:52.918Z,2.50
2022-12-05T08:10:19.550Z,2.50
2022-12-05T08:12:46.152Z,2.50
2022-12-05T08:15:12.767Z,2.50
2022-12-05T08:17:39.359Z,2.60
2022-12-05T08:20:07.390Z,2.60
2022-12-05T08:22:33.985Z,2.60
2022-12-05T08:25:00.606Z,2.60
2022-12-05T08:27:27.444Z,2.60
2022-12-05T08:29:54.592Z,2.60
2022-12-05T08:32:21.301Z,2.60
2022-12-05T08:34:47.916Z,2.60
2022-12-05T08:37:14.530Z,2.60
2022-12-05T08:39:41.131Z,2.70
2022-12-05T08:42:07.784Z,2.70
2022-12-05T08:44:34.390Z,2.70
2022-12-05T08:47:01.018Z,2.70
2022-12-05T08:49:30.123Z,2.70
2022-12-05T08:51:56.824Z,2.70
2022-12-05T08:54:23.430Z,2.70
2022-12-05T08:56:50.842Z,2.70
2022-12-05T08:59:17.474Z,2.70
2022-12-05T09:01:44.199Z,2.70
2022-12-05T09:04:12.226Z,2.70
2022-12-05T09:06:40.100Z,2.60
2022-12-05T09:09:08.549Z,2.70
2022-12-05T09:11:36.638Z,2.60
2022-12-05T09:14:05.073Z,2.50
2022-12-05T09:16:37.903Z,2.50
2022-12-05T09:19:32.275Z,2.50
2022-12-05T09:21:58.932Z,2.50
2022-12-05T09:24:25.808Z,2.50
2022-12-05T09:26:52.408Z,2.60
2022-12-05T09:29:19.107Z,2.60
2022-12-05T09:31:46.917Z,2.60
2022-12-05T09:34:14.841Z,2.60
2022-12-05T09:36:41.739Z,2.60
2022-12-05T09:39:08.450Z,2.60
2022-12-05T09:42:05.968Z,2.50
2022-12-05T09:44:40.118Z,2.50
2022-12-05T09:47:25.679Z,2.50
2022-12-05T09:50:01.332Z,2.50
2022-12-05T09:52:33.203Z,2.50
2022-12-05T09:55:05.464Z,2.50
2022-12-05T09:57:36.693Z,2.50
2022-12-05T10:00:05.224Z,2.40
2022-12-05T10:02:31.768Z,2.40
2022-12-05T10:05:02.285Z,2.30
2022-12-05T10:07:29.336Z,2.30
2022-12-05T10:09:59.013Z,2.30
2022-12-05T10:12:34.646Z,2.30
2022-12-05T10:15:03.805Z,2.30
2022-12-05T10:17:33.508Z,2.30
2022-12-05T10:20:02.973Z,2.30
2022-12-05T10:22:35.926Z,2.30
2022-12-05T10:25:04.258Z,2.30
2022-12-05T10:27:39.599Z,2.30
2022-12-05T10:30:13.576Z,2.30
2022-12-05T10:32:45.987Z,2.30
2022-12-05T10:35:17.899Z,2.30
2022-12-05T10:37:48.122Z,2.30
2022-12-05T10:40:15.584Z,2.20
2022-12-05T10:42:42.619Z,2.20
2022-12-05T10:45:15.149Z,2.20
2022-12-05T10:47:41.926Z,2.20
2022-12-05T10:50:32.055Z,2.10
2022-12-05T10:53:00.416Z,2.20
2022-12-05T10:55:30.007Z,2.20
2022-12-05T10:58:16.854Z,2.20
2022-12-05T11:00:46.674Z,2.20
2022-12-05T11:03:25.681Z,2.20
2022-12-05T11:05:54.254Z,2.20
2022-12-05T11:08:41.759Z,2.20
2022-12-05T11:11:23.059Z,2.20
2022-12-05T11:14:00.232Z,2.30
2022-12-05T11:16:32.790Z,2.30
2022-12-05T11:19:23.029Z,2.30
2022-12-05T11:21:50.120Z,2.30
2022-12-05T11:24:21.782Z,2.30
2022-12-05T11:26:48.772Z,2.30
2022-12-05T11:29:35.601Z,2.30
2022-12-05T11:32:03.701Z,2.30
2022-12-05T11:34:33.008Z,2.20
2022-12-05T11:37:06.519Z,2.20
2022-12-05T11:39:33.255Z,2.20
2022-12-05T11:42:06.020Z,2.20
2022-12-05T11:44:51.587Z,2.20
2022-12-05T11:47:21.161Z,2.20
2022-12-05T11:50:06.635Z,2.20
2022-12-05T11:52:51.941Z,2.10
2022-12-05T11:55:21.847Z,2.10
2022-12-05T11:57:52.331Z,2.00
2022-12-05T12:00:23.113Z,2.00
2022-12-05T12:02:58.972Z,2.00
2022-12-05T12:05:49.010Z,1.90
2022-12-05T12:08:15.648Z,1.90
2022-12-05T12:10:42.322Z,1.90
2022-12-05T12:13:16.117Z,1.80
2022-12-05T12:15:54.953Z,1.80
2022-12-05T12:18:36.532Z,1.80
2022-12-05T12:21:03.423Z,1.80
2022-12-05T12:23:53.286Z,1.80
2022-12-05T12:26:22.655Z,1.70
2022-12-05T12:29:00.169Z,1.70
2022-12-05T12:31:26.824Z,1.70
2022-12-05T12:34:07.822Z,1.70
2022-12-05T12:36:55.345Z,1.60
2022-12-05T12:39:44.538Z,1.60
2022-12-05T12:42:23.346Z,1.60
2022-12-05T12:45:02.360Z,1.60
2022-12-05T12:47:47.465Z,1.70
2022-12-05T12:50:14.064Z,1.70
2022-12-05T12:52:59.505Z,1.70
2022-12-05T12:55:47.204Z,1.70
2022-12-05T12:58:24.969Z,1.80
2022-12-05T13:00:51.772Z,1.80
2022-12-05T13:03:24.433Z,1.70
2022-12-05T13:05:58.977Z,1.70
2022-12-05T13:08:32.622Z,1.80
2022-12-05T13:11:01.570Z,1.70
2022-12-05T13:13:33.879Z,1.70
2022-12-05T13:16:01.677Z,1.60
2022-12-05T13:18:28.392Z,1.60
2022-12-05T13:20:57.262Z,1.60
2022-12-05T13:23:25.430Z,1.60
2022-12-05T13:25:52.989Z,1.60
2022-12-05T13:28:30.594Z,1.60
2022-12-05T13:31:01.182Z,1.60
2022-12-05T13:33:43.971Z,1.60
2022-12-05T13:36:34.502Z,1.60
2022-12-05T13:39:21.579Z,1.50
2022-12-05T13:42:10.675Z,1.50
2022-12-05T13:44:39.460Z,1.50
2022-12-05T13:47:07.570Z,1.60
2022-12-05T13:49:45.173Z,1.50
2022-12-05T13:52:32.163Z,1.50
2022-12-05T13:55:16.712Z,1.60
2022-12-05T13:57:45.491Z,1.60
2022-12-05T14:00:12.052Z,1.50
2022-12-05T14:02:41.593Z,1.60
2022-12-05T14:05:14.458Z,1.50
2022-12-05T14:07:43.389Z,1.60
2022-12-05T14:10:12.070Z,1.60
2022-12-05T14:12:57.235Z,1.60
2022-12-05T14:15:25.814Z,1.60
2022-12-05T14:18:04.064Z,1.60
2022-12-05T14:20:35.228Z,1.60
2022-12-05T14:23:20.436Z,1.60
2022-12-05T14:25:58.901Z,1.60
2022-12-05T14:28:46.672Z,1.70
2022-12-05T14:31:13.308Z,1.70
2022-12-05T14:33:40.257Z,1.60
2022-12-05T14:36:08.898Z,1.60
2022-12-05T14:38:37.771Z,1.70
2022-12-05T14:41:13.710Z,1.70
2022-12-05T14:43:40.674Z,1.70
2022-12-05T14:46:14.195Z,1.80
2022-12-05T14:48:49.113Z,1.90
2022-12-05T14:51:45.266Z,1.90
2022-12-05T14:54:14.079Z,2.00
2022-12-05T14:56:42.277Z,2.00
2022-12-05T14:59:29.789Z,2.00
2022-12-05T15:02:00.996Z,2.10
2022-12-05T15:05:02.990Z,2.00
2022-12-05T15:07:34.752Z,2.00
2022-12-05T15:10:04.691Z,2.00
2022-12-05T15:12:38.292Z,2.00
2022-12-05T15:15:08.055Z,2.00
2022-12-05T15:17:44.531Z,1.90
2022-12-05T15:20:15.649Z,2.00
2022-12-05T15:22:42.494Z,1.90
2022-12-05T15:25:21.043Z,1.90
2022-12-05T15:27:57.166Z,1.90
2022-12-05T15:30:23.815Z,1.90
2022-12-05T15:32:53.736Z,1.90
2022-12-05T15:35:24.967Z,1.90
2022-12-05T15:37:51.667Z,1.90
2022-12-05T15:40:21.831Z,1.80
2022-12-05T15:42:49.887Z,1.80
2022-12-05T15:45:21.635Z,1.80
2022-12-05T15:47:49.153Z,1.80
2022-12-05T15:50:17.658Z,1.80
2022-12-05T15:52:44.572Z,1.80
2022-12-05T15:55:15.522Z,1.80
2022-12-05T15:58:12.996Z,1.70
2022-12-05T16:00:42.468Z,1.70
2022-12-05T16:03:20.124Z,1.70
2022-12-05T16:05:55.763Z,1.70
2022-12-05T16:08:24.348Z,1.70
2022-12-05T16:10:51.541Z,1.70
2022-12-05T16:13:21.799Z,1.70
2022-12-05T16:15:52.832Z,1.60
2022-12-05T16:18:24.048Z,1.50
2022-12-05T16:20:50.658Z,1.60
2022-12-05T16:23:26.449Z,1.60
2022-12-05T16:25:53.228Z,1.60
2022-12-05T16:28:21.279Z,1.60
2022-12-05T16:30:58.764Z,1.60
2022-12-05T16:33:26.130Z,1.50
2022-12-05T16:35:52.876Z,1.50
2022-12-05T16:38:20.946Z,1.40
2022-12-05T16:40:55.424Z,1.30
2022-12-05T16:43:27.023Z,1.30
2022-12-05T16:45:55.691Z,1.20
2022-12-05T16:48:29.712Z,1.20
2022-12-05T16:51:19.412Z,1.20
2022-12-05T16:53:48.306Z,1.10
2022-12-05T16:56:35.162Z,1.10
2022-12-05T16:59:02.930Z,1.20
2022-12-05T17:01:33.190Z,1.20
2022-12-05T17:04:02.439Z,1.10
2022-12-05T17:06:30.271Z,1.00
2022-12-05T17:08:57.008Z,1.00
2022-12-05T17:11:25.908Z,1.00
2022-12-05T17:13:53.344Z,1.00
2022-12-05T17:16:20.798Z,1.00
2022-12-05T17:18:49.028Z,1.00
2022-12-05T17:21:19.908Z,1.10
2022-12-05T17:23:48.177Z,1.10
2022-12-05T17:26:16.102Z,1.10
2022-12-05T17:28:42.696Z,1.20
2022-12-05T17:31:11.391Z,1.20
2022-12-05T17:33:38.024Z,1.20
2022-12-05T17:36:05.042Z,1.20
2022-12-05T17:38:31.626Z,1.20
2022-12-05T17:41:00.325Z,1.20
2022-12-05T17:43:29.200Z,1.20
2022-12-05T17:45:56.038Z,1.20
2022-12-05T17:48:22.709Z,1.20
2022-12-05T17:50:49.693Z,1.20
2022-12-05T17:53:17.083Z,1.10
2022-12-05T17:55:43.844Z,1.10
2022-12-05T17:58:10.839Z,1.10
2022-12-05T18:00:37.775Z,1.10
2022-12-05T18:03:04.502Z,1.10
2022-12-05T18:05:31.150Z,1.10
2022-12-05T18:07:57.849Z,1.10
2022-12-05T18:10:24.617Z,1.10
2022-12-05T18:12:51.317Z,1.10
2022-12-05T18:15:17.958Z,1.20
2022-12-05T18:17:44.628Z,1.20
2022-12-05T18:20:12.502Z,1.20
2022-12-05T18:22:39.126Z,1.20
2022-12-05T18:25:06.143Z,1.20
2022-12-05T18:27:33.769Z,1.20
2022-12-05T18:30:00.605Z,1.10
2022-12-05T18:32:27.282Z,1.00
2022-12-05T18:34:53.912Z,0.90
2022-12-05T18:37:22.195Z,0.80
2022-12-05T18:39:48.819Z,0.70
2022-12-05T18:42:15.642Z,0.70
2022-12-05T18:44:42.636Z,0.70
2022-12-05T18:47:09.291Z,0.70
2022-12-05T18:49:35.957Z,0.80
2022-12-05T18:52:02.551Z,0.80
2022-12-05T18:54:29.138Z,0.90
2022-12-05T18:56:55.808Z,1.00
2022-12-05T18:59:22.547Z,1.00
2022-12-05T19:01:49.534Z,1.00
2022-12-05T19:04:17.981Z,1.00
2022-12-05T19:06:48.696Z,1.10
2022-12-05T19:09:16.949Z,1.00
2022-12-05T19:11:47.611Z,1.00
2022-12-05T19:14:15.106Z,1.10
2022-12-05T19:16:41.847Z,1.10
2022-12-05T19:19:09.052Z,1.10
2022-12-05T19:21:36.308Z,1.00
2022-12-05T19:24:06.056Z,1.00
2022-12-05T19:26:33.217Z,0.90
2022-12-05T19:28:59.823Z,0.90
2022-12-05T19:31:27.185Z,0.80
2022-12-05T19:33:55.278Z,0.70
2022-12-05T19:36:23.851Z,0.60
2022-12-05T19:38:51.555Z,0.60
2022-12-05T19:41:19.839Z,0.60
2022-12-05T19:43:46.747Z,0.70
2022-12-05T19:46:14.843Z,0.70
2022-12-05T19:48:41.557Z,0.70
2022-12-05T19:51:08.387Z,0.80
2022-12-05T19:53:36.303Z,0.70
2022-12-05T19:56:08.695Z,0.70
2022-12-05T19:58:36.140Z,0.70
2022-12-05T20:01:11.720Z,0.60
2022-12-05T20:03:39.324Z,0.60
2022-12-05T20:06:06.645Z,0.50
2022-12-05T20:08:33.491Z,0.60
2022-12-05T20:11:04.397Z,0.60
2022-12-05T20:13:47.605Z,0.70
2022-12-05T20:16:15.748Z,0.70
2022-12-05T20:18:42.448Z,0.80
2022-12-05T20:21:10.089Z,0.70
2022-12-05T20:23:36.876Z,0.60
2022-12-05T20:26:05.217Z,0.70
2022-12-05T20:28:31.944Z,0.60
2022-12-05T20:31:09.006Z,0.60
2022-12-05T20:33:36.015Z,0.70
2022-12-05T20:36:04.192Z,0.70
2022-12-05T20:38:31.086Z,0.80
2022-12-05T20:40:58.352Z,0.80
2022-12-05T20:43:25.051Z,0.80
2022-12-05T20:45:51.697Z,0.70
2022-12-05T20:48:18.333Z,0.80
2022-12-05T20:50:44.948Z,0.80
2022-12-05T20:53:11.566Z,0.80
2022-12-05T20:55:38.233Z,0.80
2022-12-05T20:58:05.325Z,0.80
2022-12-05T21:00:32.159Z,0.80
2022-12-05T21:02:58.812Z,0.90
2022-12-05T21:05:25.509Z,1.00
2022-12-05T21:07:52.148Z,1.00
2022-12-05T21:10:18.868Z,1.00
2022-12-05T21:12:45.467Z,1.00
2022-12-05T21:15:12.086Z,1.10
2022-12-05T21:17:38.689Z,1.00
2022-12-05T21:20:06.935Z,1.00
2022-12-05T21:22:33.540Z,1.00
2022-12-05T21:25:00.197Z,0.90
2022-12-05T21:27:28.232Z,1.00
2022-12-05T21:29:55.744Z,1.00
2022-12-05T21:32:22.411Z,0.90
2022-12-05T21:34:49.045Z,1.00
2022-12-05T21:37:15.808Z,1.00
2022-12-05T21:39:42.414Z,1.00
2022-12-05T21:42:09.025Z,0.90
2022-12-05T21:44:35.628Z,0.90
2022-12-05T21:47:02.241Z,0.90
2022-12-05T21:49:28.867Z,0.70
2022-12-05T21:51:55.504Z,0.70
2022-12-05T21:54:22.103Z,0.60
2022-12-05T21:56:48.833Z,0.50
2022-12-05T21:59:15.431Z,0.50
2022-12-05T22:01:42.200Z,0.60
2022-12-05T22:04:09.137Z,0.70
2022-12-05T22:06:35.827Z,0.70
2022-12-05T22:09:03.714Z,0.70
2022-12-05T22:11:30.360Z,0.70
2022-12-05T22:13:57.086Z,0.80
2022-12-05T22:16:29.205Z,0.80
2022-12-05T22:18:59.262Z,0.90
2022-12-05T22:21:25.916Z,1.00
2022-12-05T22:23:52.668Z,0.90
2022-12-05T22:26:20.404Z,0.90
2022-12-05T22:28:49.004Z,0.90
2022-12-05T22:31:16.070Z,0.80
2022-12-05T22:33:43.245Z,0.70
2022-12-05T22:36:10.751Z,0.70
2022-12-05T22:38:38.467Z,0.60
2022-12-05T22:41:06.478Z,0.60
2022-12-05T22:43:33.935Z,0.60
2022-12-05T22:46:05.007Z,0.50
2022-12-05T22:48:31.672Z,0.50
2022-12-05T22:50:58.584Z,0.50
2022-12-05T22:53:25.190Z,0.50
2022-12-05T22:55:52.031Z,0.50
2022-12-05T22:58:19.077Z,0.60
2022-12-05T23:00:46.279Z,0.70
2022-12-05T23:03:12.990Z,0.70
2022-12-05T23:05:40.389Z,0.70
2022-12-05T23:08:07.104Z,0.70
2022-12-05T23:10:33.838Z,0.70
2022-12-05T23:13:00.561Z,0.70
2022-12-05T23:15:27.266Z,0.80
2022-12-05T23:17:54.571Z,0.80
2022-12-05T23:20:21.259Z,0.80
2022-12-05T23:22:47.923Z,0.70
2022-12-05T23:25:14.803Z,0.70
2022-12-05T23:27:41.444Z,0.70
2022-12-05T23:30:08.470Z,0.70
2022-12-05T23:32:35.114Z,0.60
2022-12-05T23:35:01.827Z,0.60
2022-12-05T23:37:28.518Z,0.60
2022-12-05T23:39:55.177Z,0.60
2022-12-05T23:42:22.387Z,0.60
2022-12-05T23:44:49.031Z,0.60
2022-12-05T23:47:15.757Z,0.60
2022-12-05T23:49:42.448Z,0.60
2022-12-05T23:52:09.158Z,0.60
2022-12-05T23:54:35.899Z,0.50
2022-12-05T23:57:02.728Z,0.60
2022-12-05T23:59:29.375Z,0.60
